sensor_id;sensor_type;location;lat;lon;timestamp;temperature;humidity
25640;DHT22;13497;48.322;16.204;2023-05-21T00:00:19;14.50;99.90
25640;DHT22;13497;48.322;16.204;2023-05-21T00:02:45;14.50;99.90
25640;DHT22;13497;48.322;16.204;2023-05-21T00:05:11;14.40;99.90
25640;DHT22;13497;48.322;16.204;2023-05-21T00:07:39;14.40;99.90
25640;DHT22;13497;48.322;16.204;2023-05-21T00:10:05;14.40;99.90
25640;DHT22;13497;48.322;16.204;2023-05-21T00:12:31;14.30;99.90
25640;DHT22;13497;48.322;16.204;2023-05-21T00:14:57;14.30;99.90
25640;DHT22;13497;48.322;16.204;2023-05-21T00:17:24;14.30;99.90
25640;DHT22;13497;48.322;16.204;2023-05-21T00:19:50;14.20;99.90
25640;DHT22;13497;48.322;16.204;2023-05-21T00:22:16;14.20;99.90
25640;DHT22;13497;48.322;16.204;2023-05-21T00:24:42;14.20;99.90
25640;DHT22;13497;48.322;16.204;2023-05-21T00:27:10;14.30;99.90
25640;DHT22;13497;48.322;16.204;2023-05-21T00:29:36;14.30;99.90
25640;DHT22;13497;48.322;16.204;2023-05-21T00:32:02;14.30;99.90
25640;DHT22;13497;48.322;16.204;2023-05-21T00:34:28;14.30;99.90
25640;DHT22;13497;48.322;16.204;2023-05-21T00:36:54;14.30;99.90
25640;DHT22;13497;48.322;16.204;2023-05-21T00:39:20;14.30;99.90
25640;DHT22;13497;48.322;16.204;2023-05-21T00:41:46;14.30;99.90
25640;DHT22;13497;48.322;16.204;2023-05-21T00:44:13;14.20;99.90
25640;DHT22;13497;48.322;16.204;2023-05-21T00:46:41;14.10;99.90
25640;DHT22;13497;48.322;16.204;2023-05-21T00:49:09;14.10;99.90
25640;DHT22;13497;48.322;16.204;2023-05-21T00:51:34;14.00;99.90
25640;DHT22;13497;48.322;16.204;2023-05-21T00:54:00;13.90;99.90
25640;DHT22;13497;48.322;16.204;2023-05-21T00:56:27;13.90;99.90
25640;DHT22;13497;48.322;16.204;2023-05-21T00:58:54;13.80;99.90
25640;DHT22;13497;48.322;16.204;2023-05-21T01:01:22;13.80;99.90
25640;DHT22;13497;48.322;16.204;2023-05-21T01:03:53;13.80;99.90
25640;DHT22;13497;48.322;16.204;2023-05-21T01:06:22;13.80;99.90
25640;DHT22;13497;48.322;16.204;2023-05-21T01:08:48;13.80;99.90
25640;DHT22;13497;48.322;16.204;2023-05-21T01:11:15;13.70;99.90
25640;DHT22;13497;48.322;16.204;2023-05-21T01:13:42;13.70;99.90
25640;DHT22;13497;48.322;16.204;2023-05-21T01:16:08;13.60;99.90
25640;DHT22;13497;48.322;16.204;2023-05-21T01:18:35;13.70;99.90
25640;DHT22;13497;48.322;16.204;2023-05-21T01:21:07;13.70;99.90
25640;DHT22;13497;48.322;16.204;2023-05-21T01:23:34;13.80;99.90
25640;DHT22;13497;48.322;16.204;2023-05-21T01:26:00;13.90;99.90
25640;DHT22;13497;48.322;16.204;2023-05-21T01:28:25;13.90;99.90
25640;DHT22;13497;48.322;16.204;2023-05-21T01:30:51;14.00;99.90
25640;DHT22;13497;48.322;16.204;2023-05-21T01:33:21;13.90;99.90
25640;DHT22;13497;48.322;16.204;2023-05-21T01:35:56;13.90;99.90
25640;DHT22;13497;48.322;16.204;2023-05-21T01:38:30;13.90;99.90
25640;DHT22;13497;48.322;16.204;2023-05-21T01:41:02;13.80;99.90
25640;DHT22;13497;48.322;16.204;2023-05-21T01:43:34;13.70;99.90
25640;DHT22;13497;48.322;16.204;2023-05-21T01:46:01;13.70;99.90
25640;DHT22;13497;48.322;16.204;2023-05-21T01:48:28;13.60;99.90
25640;DHT22;13497;48.322;16.204;2023-05-21T01:50:57;13.50;99.90
25640;DHT22;13497;48.322;16.204;2023-05-21T01:53:24;13.60;99.90
25640;DHT22;13497;48.322;16.204;2023-05-21T01:55:50;13.50;99.90
25640;DHT22;13497;48.322;16.204;2023-05-21T01:58:15;13.40;99.90
25640;DHT22;13497;48.322;16.204;2023-05-21T02:00:41;13.40;99.90
25640;DHT22;13497;48.322;16.204;2023-05-21T02:03:10;13.40;99.90
25640;DHT22;13497;48.322;16.204;2023-05-21T02:05:36;13.50;99.90
25640;DHT22;13497;48.322;16.204;2023-05-21T02:08:02;13.50;99.90
25640;DHT22;13497;48.322;16.204;2023-05-21T02:10:28;13.50;99.90
25640;DHT22;13497;48.322;16.204;2023-05-21T02:12:54;13.40;99.90
25640;DHT22;13497;48.322;16.204;2023-05-21T02:15:19;13.30;99.90
25640;DHT22;13497;48.322;16.204;2023-05-21T02:17:45;13.30;99.90
25640;DHT22;13497;48.322;16.204;2023-05-21T02:20:12;13.20;99.90
25640;DHT22;13497;48.322;16.204;2023-05-21T02:22:43;13.20;99.90
25640;DHT22;13497;48.322;16.204;2023-05-21T02:25:10;13.10;99.90
25640;DHT22;13497;48.322;16.204;2023-05-21T02:27:37;13.10;99.90
25640;DHT22;13497;48.322;16.204;2023-05-21T02:30:04;13.00;99.90
25640;DHT22;13497;48.322;16.204;2023-05-21T02:32:31;13.00;99.90
25640;DHT22;13497;48.322;16.204;2023-05-21T02:34:57;12.90;99.90
25640;DHT22;13497;48.322;16.204;2023-05-21T02:37:24;12.90;99.90
25640;DHT22;13497;48.322;16.204;2023-05-21T02:39:55;12.90;99.90
25640;DHT22;13497;48.322;16.204;2023-05-21T02:42:21;12.80;99.90
25640;DHT22;13497;48.322;16.204;2023-05-21T02:44:48;12.70;99.90
25640;DHT22;13497;48.322;16.204;2023-05-21T02:47:15;12.80;99.90
25640;DHT22;13497;48.322;16.204;2023-05-21T02:49:41;12.70;99.90
25640;DHT22;13497;48.322;16.204;2023-05-21T02:52:06;12.70;99.90
25640;DHT22;13497;48.322;16.204;2023-05-21T02:54:32;12.70;99.90
25640;DHT22;13497;48.322;16.204;2023-05-21T02:56:58;12.80;99.90
25640;DHT22;13497;48.322;16.204;2023-05-21T02:59:23;12.80;99.90
25640;DHT22;13497;48.322;16.204;2023-05-21T03:01:49;12.80;99.90
25640;DHT22;13497;48.322;16.204;2023-05-21T03:04:15;12.90;99.90
25640;DHT22;13497;48.322;16.204;2023-05-21T03:06:46;12.80;99.90
25640;DHT22;13497;48.322;16.204;2023-05-21T03:09:12;12.70;99.90
25640;DHT22;13497;48.322;16.204;2023-05-21T03:11:38;12.60;99.90
25640;DHT22;13497;48.322;16.204;2023-05-21T03:14:03;12.70;99.90
25640;DHT22;13497;48.322;16.204;2023-05-21T03:16:29;12.80;99.90
25640;DHT22;13497;48.322;16.204;2023-05-21T03:18:59;12.80;99.90
25640;DHT22;13497;48.322;16.204;2023-05-21T03:21:25;12.80;99.90
25640;DHT22;13497;48.322;16.204;2023-05-21T03:23:54;12.80;99.90
25640;DHT22;13497;48.322;16.204;2023-05-21T03:26:24;12.90;99.90
25640;DHT22;13497;48.322;16.204;2023-05-21T03:28:52;12.90;99.90
25640;DHT22;13497;48.322;16.204;2023-05-21T03:31:18;13.00;99.90
25640;DHT22;13497;48.322;16.204;2023-05-21T03:33:43;13.20;99.90
25640;DHT22;13497;48.322;16.204;2023-05-21T03:36:09;13.20;99.90
25640;DHT22;13497;48.322;16.204;2023-05-21T03:38:35;13.20;99.90
25640;DHT22;13497;48.322;16.204;2023-05-21T03:41:00;13.30;99.90
25640;DHT22;13497;48.322;16.204;2023-05-21T03:43:26;13.40;99.90
25640;DHT22;13497;48.322;16.204;2023-05-21T03:45:53;13.50;99.90
25640;DHT22;13497;48.322;16.204;2023-05-21T03:48:19;13.50;99.90
25640;DHT22;13497;48.322;16.204;2023-05-21T03:50:45;13.50;99.90
25640;DHT22;13497;48.322;16.204;2023-05-21T03:53:10;13.50;99.90
25640;DHT22;13497;48.322;16.204;2023-05-21T03:55:36;13.60;99.90
25640;DHT22;13497;48.322;16.204;2023-05-21T03:58:02;13.70;99.90
25640;DHT22;13497;48.322;16.204;2023-05-21T04:00:28;13.80;99.90
25640;DHT22;13497;48.322;16.204;2023-05-21T04:02:53;14.10;99.90
25640;DHT22;13497;48.322;16.204;2023-05-21T04:05:19;14.60;99.90
25640;DHT22;13497;48.322;16.204;2023-05-21T04:07:45;14.90;99.90
25640;DHT22;13497;48.322;16.204;2023-05-21T04:10:11;15.30;99.90
25640;DHT22;13497;48.322;16.204;2023-05-21T04:12:37;15.70;99.90
25640;DHT22;13497;48.322;16.204;2023-05-21T04:15:03;16.00;99.90
25640;DHT22;13497;48.322;16.204;2023-05-21T04:17:28;16.40;99.90
25640;DHT22;13497;48.322;16.204;2023-05-21T04:19:54;16.60;99.90
25640;DHT22;13497;48.322;16.204;2023-05-21T04:22:20;16.70;99.90
25640;DHT22;13497;48.322;16.204;2023-05-21T04:24:47;16.90;99.90
25640;DHT22;13497;48.322;16.204;2023-05-21T04:27:14;17.60;99.90
25640;DHT22;13497;48.322;16.204;2023-05-21T04:29:41;17.90;99.90
25640;DHT22;13497;48.322;16.204;2023-05-21T04:32:07;18.00;99.90
25640;DHT22;13497;48.322;16.204;2023-05-21T04:34:33;18.40;99.90
25640;DHT22;13497;48.322;16.204;2023-05-21T04:36:59;18.60;99.90
25640;DHT22;13497;48.322;16.204;2023-05-21T04:39:26;18.80;99.90
25640;DHT22;13497;48.322;16.204;2023-05-21T04:41:53;19.00;99.90
25640;DHT22;13497;48.322;16.204;2023-05-21T04:44:20;18.90;99.90
25640;DHT22;13497;48.322;16.204;2023-05-21T04:46:46;19.30;99.90
25640;DHT22;13497;48.322;16.204;2023-05-21T04:49:13;19.80;99.90
25640;DHT22;13497;48.322;16.204;2023-05-21T04:51:39;19.70;99.90
25640;DHT22;13497;48.322;16.204;2023-05-21T04:54:06;20.20;99.90
25640;DHT22;13497;48.322;16.204;2023-05-21T04:56:32;20.80;99.90
25640;DHT22;13497;48.322;16.204;2023-05-21T04:58:58;21.30;99.90
25640;DHT22;13497;48.322;16.204;2023-05-21T05:01:24;21.90;99.90
25640;DHT22;13497;48.322;16.204;2023-05-21T05:03:53;22.50;99.90
25640;DHT22;13497;48.322;16.204;2023-05-21T05:06:19;23.10;99.90
25640;DHT22;13497;48.322;16.204;2023-05-21T05:08:46;23.60;99.90
25640;DHT22;13497;48.322;16.204;2023-05-21T05:11:12;23.60;99.90
25640;DHT22;13497;48.322;16.204;2023-05-21T05:13:39;23.50;99.90
25640;DHT22;13497;48.322;16.204;2023-05-21T05:16:06;23.50;99.90
25640;DHT22;13497;48.322;16.204;2023-05-21T05:18:32;23.30;99.90
25640;DHT22;13497;48.322;16.204;2023-05-21T05:20:59;23.60;99.90
25640;DHT22;13497;48.322;16.204;2023-05-21T05:23:24;23.60;99.90
25640;DHT22;13497;48.322;16.204;2023-05-21T05:25:50;23.80;99.90
25640;DHT22;13497;48.322;16.204;2023-05-21T05:28:16;23.60;99.90
25640;DHT22;13497;48.322;16.204;2023-05-21T05:30:42;24.00;99.70
25640;DHT22;13497;48.322;16.204;2023-05-21T05:33:07;24.50;99.10
25640;DHT22;13497;48.322;16.204;2023-05-21T05:35:33;24.10;99.00
25640;DHT22;13497;48.322;16.204;2023-05-21T05:37:59;23.70;99.90
25640;DHT22;13497;48.322;16.204;2023-05-21T05:40:24;24.50;99.10
25640;DHT22;13497;48.322;16.204;2023-05-21T05:42:50;24.40;98.90
25640;DHT22;13497;48.322;16.204;2023-05-21T05:45:17;24.90;98.50
25640;DHT22;13497;48.322;16.204;2023-05-21T05:47:43;25.10;98.30
25640;DHT22;13497;48.322;16.204;2023-05-21T05:50:11;25.30;98.00
25640;DHT22;13497;48.322;16.204;2023-05-21T05:52:36;25.10;97.90
25640;DHT22;13497;48.322;16.204;2023-05-21T05:55:03;25.50;98.00
25640;DHT22;13497;48.322;16.204;2023-05-21T05:57:29;25.80;97.50
25640;DHT22;13497;48.322;16.204;2023-05-21T05:59:55;25.90;97.30
25640;DHT22;13497;48.322;16.204;2023-05-21T06:02:21;26.30;96.80
25640;DHT22;13497;48.322;16.204;2023-05-21T06:04:46;26.50;96.40
25640;DHT22;13497;48.322;16.204;2023-05-21T06:07:12;26.80;95.80
25640;DHT22;13497;48.322;16.204;2023-05-21T06:09:37;26.90;95.80
25640;DHT22;13497;48.322;16.204;2023-05-21T06:12:04;27.00;95.60
25640;DHT22;13497;48.322;16.204;2023-05-21T06:14:30;26.60;95.80
25640;DHT22;13497;48.322;16.204;2023-05-21T06:16:55;26.30;96.20
25640;DHT22;13497;48.322;16.204;2023-05-21T06:19:21;26.20;96.30
25640;DHT22;13497;48.322;16.204;2023-05-21T06:21:47;25.90;96.70
25640;DHT22;13497;48.322;16.204;2023-05-21T06:24:12;25.90;96.60
25640;DHT22;13497;48.322;16.204;2023-05-21T06:26:38;25.80;96.70
25640;DHT22;13497;48.322;16.204;2023-05-21T06:29:03;25.70;96.90
25640;DHT22;13497;48.322;16.204;2023-05-21T06:31:29;25.60;97.10
25640;DHT22;13497;48.322;16.204;2023-05-21T06:33:57;25.60;97.10
25640;DHT22;13497;48.322;16.204;2023-05-21T06:36:25;25.40;97.40
25640;DHT22;13497;48.322;16.204;2023-05-21T06:38:56;25.60;97.10
25640;DHT22;13497;48.322;16.204;2023-05-21T06:41:22;25.20;97.40
25640;DHT22;13497;48.322;16.204;2023-05-21T06:43:48;24.60;98.50
25640;DHT22;13497;48.322;16.204;2023-05-21T06:46:14;23.80;99.40
25640;DHT22;13497;48.322;16.204;2023-05-21T06:48:40;23.00;98.80
25640;DHT22;13497;48.322;16.204;2023-05-21T06:51:06;22.30;99.40
25640;DHT22;13497;48.322;16.204;2023-05-21T06:53:31;21.50;99.90
25640;DHT22;13497;48.322;16.204;2023-05-21T06:55:57;21.00;99.90
25640;DHT22;13497;48.322;16.204;2023-05-21T06:58:23;20.60;99.90
25640;DHT22;13497;48.322;16.204;2023-05-21T07:00:48;20.50;99.90
25640;DHT22;13497;48.322;16.204;2023-05-21T07:03:14;20.40;99.90
25640;DHT22;13497;48.322;16.204;2023-05-21T07:05:40;20.70;99.90
25640;DHT22;13497;48.322;16.204;2023-05-21T07:08:05;20.90;99.90
25640;DHT22;13497;48.322;16.204;2023-05-21T07:10:31;21.10;99.90
25640;DHT22;13497;48.322;16.204;2023-05-21T07:12:57;21.40;99.90
25640;DHT22;13497;48.322;16.204;2023-05-21T07:15:23;21.20;99.90
25640;DHT22;13497;48.322;16.204;2023-05-21T07:17:48;21.00;99.90
25640;DHT22;13497;48.322;16.204;2023-05-21T07:20:14;20.80;99.90
25640;DHT22;13497;48.322;16.204;2023-05-21T07:22:40;20.90;99.90
25640;DHT22;13497;48.322;16.204;2023-05-21T07:25:07;20.80;99.90
25640;DHT22;13497;48.322;16.204;2023-05-21T07:27:33;20.70;99.90
25640;DHT22;13497;48.322;16.204;2023-05-21T07:29:59;20.60;99.90
25640;DHT22;13497;48.322;16.204;2023-05-21T07:32:24;20.50;99.90
25640;DHT22;13497;48.322;16.204;2023-05-21T07:34:53;20.80;99.90
25640;DHT22;13497;48.322;16.204;2023-05-21T07:37:19;20.80;99.90
25640;DHT22;13497;48.322;16.204;2023-05-21T07:39:45;20.80;99.90
25640;DHT22;13497;48.322;16.204;2023-05-21T07:42:11;20.80;99.90
25640;DHT22;13497;48.322;16.204;2023-05-21T07:44:36;20.80;99.90
25640;DHT22;13497;48.322;16.204;2023-05-21T07:47:02;21.00;99.90
25640;DHT22;13497;48.322;16.204;2023-05-21T07:49:28;21.20;99.90
25640;DHT22;13497;48.322;16.204;2023-05-21T07:51:54;21.10;99.90
25640;DHT22;13497;48.322;16.204;2023-05-21T07:54:19;21.10;99.90
25640;DHT22;13497;48.322;16.204;2023-05-21T07:56:45;21.10;99.90
25640;DHT22;13497;48.322;16.204;2023-05-21T07:59:13;21.10;99.90
25640;DHT22;13497;48.322;16.204;2023-05-21T08:01:38;21.00;99.90
25640;DHT22;13497;48.322;16.204;2023-05-21T08:04:05;21.00;99.90
25640;DHT22;13497;48.322;16.204;2023-05-21T08:06:31;21.10;99.90
25640;DHT22;13497;48.322;16.204;2023-05-21T08:08:59;21.30;99.90
25640;DHT22;13497;48.322;16.204;2023-05-21T08:11:26;21.40;99.90
25640;DHT22;13497;48.322;16.204;2023-05-21T08:13:52;21.40;99.90
25640;DHT22;13497;48.322;16.204;2023-05-21T08:16:18;21.30;99.90
25640;DHT22;13497;48.322;16.204;2023-05-21T08:18:43;21.20;99.90
25640;DHT22;13497;48.322;16.204;2023-05-21T08:21:09;21.30;99.90
25640;DHT22;13497;48.322;16.204;2023-05-21T08:23:35;21.50;99.90
25640;DHT22;13497;48.322;16.204;2023-05-21T08:26:00;21.50;99.90
25640;DHT22;13497;48.322;16.204;2023-05-21T08:28:26;21.50;99.90
25640;DHT22;13497;48.322;16.204;2023-05-21T08:30:53;21.50;99.90
25640;DHT22;13497;48.322;16.204;2023-05-21T08:33:19;21.50;99.90
25640;DHT22;13497;48.322;16.204;2023-05-21T08:35:44;21.50;99.90
25640;DHT22;13497;48.322;16.204;2023-05-21T08:38:10;21.40;99.90
25640;DHT22;13497;48.322;16.204;2023-05-21T08:40:36;21.40;99.90
25640;DHT22;13497;48.322;16.204;2023-05-21T08:43:02;21.40;99.90
25640;DHT22;13497;48.322;16.204;2023-05-21T08:45:33;21.50;99.90
25640;DHT22;13497;48.322;16.204;2023-05-21T08:48:02;21.50;99.90
25640;DHT22;13497;48.322;16.204;2023-05-21T08:50:28;21.50;99.90
25640;DHT22;13497;48.322;16.204;2023-05-21T08:52:55;21.50;99.90
25640;DHT22;13497;48.322;16.204;2023-05-21T08:55:23;21.50;99.90
25640;DHT22;13497;48.322;16.204;2023-05-21T08:57:49;21.80;99.90
25640;DHT22;13497;48.322;16.204;2023-05-21T09:00:18;21.80;99.90
25640;DHT22;13497;48.322;16.204;2023-05-21T09:02:45;21.50;99.90
25640;DHT22;13497;48.322;16.204;2023-05-21T09:05:12;21.60;99.90
25640;DHT22;13497;48.322;16.204;2023-05-21T09:07:46;22.00;99.90
25640;DHT22;13497;48.322;16.204;2023-05-21T09:10:12;22.20;99.80
25640;DHT22;13497;48.322;16.204;2023-05-21T09:12:38;22.40;99.50
25640;DHT22;13497;48.322;16.204;2023-05-21T09:15:04;22.70;99.30
25640;DHT22;13497;48.322;16.204;2023-05-21T09:17:31;22.90;98.80
25640;DHT22;13497;48.322;16.204;2023-05-21T09:22:43;22.60;99.10
25640;DHT22;13497;48.322;16.204;2023-05-21T09:25:10;22.50;98.70
25640;DHT22;13497;48.322;16.204;2023-05-21T09:27:36;22.50;99.10
25640;DHT22;13497;48.322;16.204;2023-05-21T09:30:03;22.40;98.90
25640;DHT22;13497;48.322;16.204;2023-05-21T09:32:29;22.50;99.20
25640;DHT22;13497;48.322;16.204;2023-05-21T09:34:55;22.70;97.80
25640;DHT22;13497;48.322;16.204;2023-05-21T09:37:21;23.00;97.90
25640;DHT22;13497;48.322;16.204;2023-05-21T09:39:47;23.40;97.40
25640;DHT22;13497;48.322;16.204;2023-05-21T09:42:13;23.30;97.00
25640;DHT22;13497;48.322;16.204;2023-05-21T09:44:41;23.30;97.50
25640;DHT22;13497;48.322;16.204;2023-05-21T09:47:07;23.30;97.40
25640;DHT22;13497;48.322;16.204;2023-05-21T09:49:36;23.60;96.50
25640;DHT22;13497;48.322;16.204;2023-05-21T09:52:02;23.70;95.80
25640;DHT22;13497;48.322;16.204;2023-05-21T09:54:32;23.60;96.10
25640;DHT22;13497;48.322;16.204;2023-05-21T09:57:01;23.70;96.10
25640;DHT22;13497;48.322;16.204;2023-05-21T09:59:37;23.90;95.50
25640;DHT22;13497;48.322;16.204;2023-05-21T10:02:07;24.10;95.50
25640;DHT22;13497;48.322;16.204;2023-05-21T10:04:39;24.10;95.00
25640;DHT22;13497;48.322;16.204;2023-05-21T10:07:05;23.80;95.40
25640;DHT22;13497;48.322;16.204;2023-05-21T10:09:31;23.80;95.60
25640;DHT22;13497;48.322;16.204;2023-05-21T10:11:58;23.70;95.70
25640;DHT22;13497;48.322;16.204;2023-05-21T10:14:24;23.80;96.00
25640;DHT22;13497;48.322;16.204;2023-05-21T10:16:53;23.50;95.70
25640;DHT22;13497;48.322;16.204;2023-05-21T10:19:21;23.50;96.30
25640;DHT22;13497;48.322;16.204;2023-05-21T10:21:49;23.70;96.40
25640;DHT22;13497;48.322;16.204;2023-05-21T10:24:16;23.80;96.00
25640;DHT22;13497;48.322;16.204;2023-05-21T10:26:42;23.80;95.80
25640;DHT22;13497;48.322;16.204;2023-05-21T10:29:09;23.60;95.40
25640;DHT22;13497;48.322;16.204;2023-05-21T10:31:34;23.50;95.70
25640;DHT22;13497;48.322;16.204;2023-05-21T10:34:02;23.60;95.80
25640;DHT22;13497;48.322;16.204;2023-05-21T10:36:31;23.70;95.60
25640;DHT22;13497;48.322;16.204;2023-05-21T10:38:59;23.60;95.70
25640;DHT22;13497;48.322;16.204;2023-05-21T10:41:27;23.80;95.60
25640;DHT22;13497;48.322;16.204;2023-05-21T10:44:08;23.80;95.20
25640;DHT22;13497;48.322;16.204;2023-05-21T10:54:47;24.00;96.10
25640;DHT22;13497;48.322;16.204;2023-05-21T10:59:56;24.30;95.60
25640;DHT22;13497;48.322;16.204;2023-05-21T11:02:25;24.30;95.10
25640;DHT22;13497;48.322;16.204;2023-05-21T11:04:58;24.30;95.80
25640;DHT22;13497;48.322;16.204;2023-05-21T11:07:55;24.60;95.60
25640;DHT22;13497;48.322;16.204;2023-05-21T11:10:41;24.90;94.80
25640;DHT22;13497;48.322;16.204;2023-05-21T11:13:14;25.20;94.60
25640;DHT22;13497;48.322;16.204;2023-05-21T11:21:08;24.60;94.70
25640;DHT22;13497;48.322;16.204;2023-05-21T11:26:19;24.80;94.80
25640;DHT22;13497;48.322;16.204;2023-05-21T11:31:29;24.30;94.90
25640;DHT22;13497;48.322;16.204;2023-05-21T11:34:22;24.50;95.40
25640;DHT22;13497;48.322;16.204;2023-05-21T11:40:26;24.80;93.80
25640;DHT22;13497;48.322;16.204;2023-05-21T11:42:55;25.00;93.40
25640;DHT22;13497;48.322;16.204;2023-05-21T11:45:25;25.30;93.80
25640;DHT22;13497;48.322;16.204;2023-05-21T11:47:52;24.90;93.80
25640;DHT22;13497;48.322;16.204;2023-05-21T11:50:19;24.70;94.40
25640;DHT22;13497;48.322;16.204;2023-05-21T11:52:45;24.80;94.20
25640;DHT22;13497;48.322;16.204;2023-05-21T11:55:11;25.10;93.90
25640;DHT22;13497;48.322;16.204;2023-05-21T11:57:43;25.40;93.90
25640;DHT22;13497;48.322;16.204;2023-05-21T12:00:13;25.40;93.30
25640;DHT22;13497;48.322;16.204;2023-05-21T12:02:49;25.20;93.30
25640;DHT22;13497;48.322;16.204;2023-05-21T12:05:15;25.30;93.00
25640;DHT22;13497;48.322;16.204;2023-05-21T12:07:40;25.20;93.10
25640;DHT22;13497;48.322;16.204;2023-05-21T12:10:07;25.00;93.00
25640;DHT22;13497;48.322;16.204;2023-05-21T12:12:33;25.00;93.20
25640;DHT22;13497;48.322;16.204;2023-05-21T12:15:00;25.20;93.40
25640;DHT22;13497;48.322;16.204;2023-05-21T12:17:26;25.50;92.90
25640;DHT22;13497;48.322;16.204;2023-05-21T12:19:56;25.50;92.40
25640;DHT22;13497;48.322;16.204;2023-05-21T12:22:25;25.10;92.30
25640;DHT22;13497;48.322;16.204;2023-05-21T12:24:52;25.00;92.90
25640;DHT22;13497;48.322;16.204;2023-05-21T12:27:20;25.20;93.00
25640;DHT22;13497;48.322;16.204;2023-05-21T12:29:49;25.40;92.80
25640;DHT22;13497;48.322;16.204;2023-05-21T12:32:16;25.60;92.00
25640;DHT22;13497;48.322;16.204;2023-05-21T12:34:48;25.80;92.40
25640;DHT22;13497;48.322;16.204;2023-05-21T12:37:27;26.20;92.10
25640;DHT22;13497;48.322;16.204;2023-05-21T12:40:01;26.50;91.20
25640;DHT22;13497;48.322;16.204;2023-05-21T12:42:32;26.70;90.80
25640;DHT22;13497;48.322;16.204;2023-05-21T12:45:10;26.70;90.10
25640;DHT22;13497;48.322;16.204;2023-05-21T12:47:36;26.80;90.80
25640;DHT22;13497;48.322;16.204;2023-05-21T12:50:03;26.70;90.90
25640;DHT22;13497;48.322;16.204;2023-05-21T12:52:32;26.20;90.90
25640;DHT22;13497;48.322;16.204;2023-05-21T12:54:58;26.00;91.10
25640;DHT22;13497;48.322;16.204;2023-05-21T12:57:26;25.90;90.90
25640;DHT22;13497;48.322;16.204;2023-05-21T12:59:56;26.00;90.40
25640;DHT22;13497;48.322;16.204;2023-05-21T13:02:27;26.10;90.50
25640;DHT22;13497;48.322;16.204;2023-05-21T13:04:54;26.30;90.00
25640;DHT22;13497;48.322;16.204;2023-05-21T13:07:20;26.20;88.90
25640;DHT22;13497;48.322;16.204;2023-05-21T13:09:46;26.20;89.40
25640;DHT22;13497;48.322;16.204;2023-05-21T13:12:13;26.30;89.60
25640;DHT22;13497;48.322;16.204;2023-05-21T13:14:38;26.30;89.00
25640;DHT22;13497;48.322;16.204;2023-05-21T13:17:04;26.30;89.50
25640;DHT22;13497;48.322;16.204;2023-05-21T13:19:30;26.20;90.90
25640;DHT22;13497;48.322;16.204;2023-05-21T13:21:56;25.80;90.10
25640;DHT22;13497;48.322;16.204;2023-05-21T13:24:22;25.60;88.40
25640;DHT22;13497;48.322;16.204;2023-05-21T13:26:47;25.50;89.00
25640;DHT22;13497;48.322;16.204;2023-05-21T13:29:13;25.80;89.50
25640;DHT22;13497;48.322;16.204;2023-05-21T13:31:40;26.00;89.10
25640;DHT22;13497;48.322;16.204;2023-05-21T13:34:05;26.10;87.90
25640;DHT22;13497;48.322;16.204;2023-05-21T13:36:32;26.30;87.90
25640;DHT22;13497;48.322;16.204;2023-05-21T13:38:58;26.00;88.30
25640;DHT22;13497;48.322;16.204;2023-05-21T13:41:23;26.00;88.00
25640;DHT22;13497;48.322;16.204;2023-05-21T13:43:49;26.20;87.30
25640;DHT22;13497;48.322;16.204;2023-05-21T13:46:14;26.30;87.50
25640;DHT22;13497;48.322;16.204;2023-05-21T13:48:40;26.40;88.50
25640;DHT22;13497;48.322;16.204;2023-05-21T13:51:07;26.30;89.80
25640;DHT22;13497;48.322;16.204;2023-05-21T13:53:33;26.50;87.10
25640;DHT22;13497;48.322;16.204;2023-05-21T13:55:59;26.30;86.10
25640;DHT22;13497;48.322;16.204;2023-05-21T13:58:25;26.20;85.60
25640;DHT22;13497;48.322;16.204;2023-05-21T14:00:52;26.00;84.90
25640;DHT22;13497;48.322;16.204;2023-05-21T14:03:18;25.70;84.40
25640;DHT22;13497;48.322;16.204;2023-05-21T14:05:44;25.50;85.60
25640;DHT22;13497;48.322;16.204;2023-05-21T14:08:10;25.70;86.40
25640;DHT22;13497;48.322;16.204;2023-05-21T14:10:35;25.80;85.90
25640;DHT22;13497;48.322;16.204;2023-05-21T14:13:01;25.80;86.10
25640;DHT22;13497;48.322;16.204;2023-05-21T14:15:27;26.00;85.40
25640;DHT22;13497;48.322;16.204;2023-05-21T14:17:53;26.10;86.40
25640;DHT22;13497;48.322;16.204;2023-05-21T14:20:19;25.80;85.00
25640;DHT22;13497;48.322;16.204;2023-05-21T14:22:44;25.60;85.70
25640;DHT22;13497;48.322;16.204;2023-05-21T14:25:10;25.60;85.90
25640;DHT22;13497;48.322;16.204;2023-05-21T14:27:36;25.60;86.50
25640;DHT22;13497;48.322;16.204;2023-05-21T14:30:02;25.80;86.70
25640;DHT22;13497;48.322;16.204;2023-05-21T14:32:30;25.90;85.90
25640;DHT22;13497;48.322;16.204;2023-05-21T14:34:56;26.00;86.10
25640;DHT22;13497;48.322;16.204;2023-05-21T14:37:21;26.10;86.80
25640;DHT22;13497;48.322;16.204;2023-05-21T14:39:47;26.20;86.50
25640;DHT22;13497;48.322;16.204;2023-05-21T14:42:12;26.00;85.20
25640;DHT22;13497;48.322;16.204;2023-05-21T14:44:38;26.20;85.30
25640;DHT22;13497;48.322;16.204;2023-05-21T14:47:04;26.30;86.30
25640;DHT22;13497;48.322;16.204;2023-05-21T14:49:29;26.30;86.60
25640;DHT22;13497;48.322;16.204;2023-05-21T14:51:55;26.10;86.40
25640;DHT22;13497;48.322;16.204;2023-05-21T14:54:21;26.00;86.80
25640;DHT22;13497;48.322;16.204;2023-05-21T14:56:46;26.10;85.80
25640;DHT22;13497;48.322;16.204;2023-05-21T14:59:12;26.30;86.00
25640;DHT22;13497;48.322;16.204;2023-05-21T15:01:38;26.60;85.60
25640;DHT22;13497;48.322;16.204;2023-05-21T15:04:04;26.70;86.10
25640;DHT22;13497;48.322;16.204;2023-05-21T15:06:31;26.70;86.00
25640;DHT22;13497;48.322;16.204;2023-05-21T15:08:59;26.70;86.60
25640;DHT22;13497;48.322;16.204;2023-05-21T15:11:24;26.50;86.10
25640;DHT22;13497;48.322;16.204;2023-05-21T15:13:50;26.50;85.80
25640;DHT22;13497;48.322;16.204;2023-05-21T15:16:16;26.50;86.20
25640;DHT22;13497;48.322;16.204;2023-05-21T15:18:41;26.50;86.90
25640;DHT22;13497;48.322;16.204;2023-05-21T15:21:07;26.50;85.60
25640;DHT22;13497;48.322;16.204;2023-05-21T15:23:32;26.20;84.90
25640;DHT22;13497;48.322;16.204;2023-05-21T15:25:58;26.30;85.90
25640;DHT22;13497;48.322;16.204;2023-05-21T15:28:24;26.30;85.20
25640;DHT22;13497;48.322;16.204;2023-05-21T15:30:50;26.20;85.40
25640;DHT22;13497;48.322;16.204;2023-05-21T15:33:15;26.40;85.70
25640;DHT22;13497;48.322;16.204;2023-05-21T15:35:41;26.30;85.00
25640;DHT22;13497;48.322;16.204;2023-05-21T15:38:07;26.20;84.90
25640;DHT22;13497;48.322;16.204;2023-05-21T15:40:32;26.00;84.90